Time;durP1;ratioP1;P1;durP2;ratioP2;P2;SDS_P1;SDS_P2;PMS_P1;PMS_P2;Temp;Humidity;BMP_temperature;BMP_pressure;BME280_temperature;BME280_humidity;BME280_pressure;Samples;Min_cycle;Max_cycle;Signal;HPM_P1;HPM_P2
2024/03/08 00:00:51;;;;;;;;;;;;;;;5.10;87.61;96483.09;7394520;19;1861;-70
2024/03/08 00:03:23;;;;;;;;;;;;;;;5.18;87.93;96486.41;7400261;19;1911;-63
2024/03/08 00:05:51;;;;;;;;;;;;;;;5.31;87.21;96479.28;7400201;19;1030;-69
2024/03/08 00:08:20;;;;;;;;;;;;;;;5.18;86.29;96476.00;7400016;19;1901;-71
2024/03/08 00:10:49;;;;;;;;;;;;;;;5.22;86.96;96475.97;7397941;19;1671;-67
2024/03/08 00:13:17;;;;;;;;;;;;;;;5.10;86.89;96471.84;7400047;19;1037;-66
2024/03/08 00:15:46;;;;;;;;;;;;;;;5.10;87.39;96470.13;7399951;19;2084;-70
2024/03/08 00:18:14;;;;;;;;;;;;;;;5.10;87.13;96464.94;7399870;19;1910;-70
2024/03/08 00:20:45;;;;;;;;;;;;;;;5.01;87.30;96463.34;7399397;19;1088;-69
2024/03/08 00:23:15;;;;;;;;;;;;;;;4.92;88.36;96460.91;7396834;19;1854;-70
2024/03/08 00:25:44;;;;;;;;;;;;;;;4.91;88.50;96460.03;7399690;19;965;-67
2024/03/08 00:28:14;;;;;;;;;;;;;;;4.88;89.15;96454.06;7399413;19;1817;-66
2024/03/08 00:30:43;;;;;;;;;;;;;;;4.98;88.43;96460.81;7399405;19;960;-69
2024/03/08 00:33:11;;;;;;;;;;;;;;;4.97;88.65;96459.09;7399246;19;964;-69
2024/03/08 00:35:40;;;;;;;;;;;;;;;5.02;88.40;96465.06;7398796;19;1037;-69
2024/03/08 00:38:08;;;;;;;;;;;;;;;4.90;88.34;96460.94;7399294;19;968;-71
2024/03/08 00:40:36;;;;;;;;;;;;;;;4.94;88.51;96461.75;7396325;19;1122;-71
2024/03/08 00:43:06;;;;;;;;;;;;;;;4.77;88.86;96462.03;7396988;19;1838;-70
2024/03/08 00:45:34;;;;;;;;;;;;;;;4.78;89.51;96456.81;7398764;19;1839;-71
2024/03/08 00:48:02;;;;;;;;;;;;;;;4.67;89.29;96461.31;7399261;19;1730;-70
2024/03/08 00:50:31;;;;;;;;;;;;;;;4.52;90.00;96460.66;7398793;19;1031;-66
2024/03/08 00:52:59;;;;;;;;;;;;;;;4.60;90.16;96449.34;7398791;19;1010;-66
2024/03/08 00:55:30;;;;;;;;;;;;;;;4.66;90.30;96457.00;7398130;19;1218;-65
2024/03/08 00:57:59;;;;;;;;;;;;;;;4.62;90.95;96453.63;7398091;19;1175;-65
2024/03/08 01:00:28;;;;;;;;;;;;;;;4.68;90.81;96460.44;7398375;19;1902;-67
2024/03/08 01:02:56;;;;;;;;;;;;;;;4.76;90.30;96457.72;7396489;19;1846;-66
2024/03/08 01:05:25;;;;;;;;;;;;;;;4.80;90.28;96464.56;7397826;19;1123;-66
2024/03/08 01:07:54;;;;;;;;;;;;;;;4.85;89.83;96465.31;7398111;19;1079;-70
2024/03/08 01:10:22;;;;;;;;;;;;;;;4.89;89.71;96467.00;7394615;19;1103;-70
2024/03/08 01:12:54;;;;;;;;;;;;;;;4.89;88.96;96466.16;7394825;19;1080;-67
2024/03/08 01:15:22;;;;;;;;;;;;;;;4.79;88.71;96465.44;7398242;19;1038;-67
2024/03/08 01:17:51;;;;;;;;;;;;;;;4.78;88.94;96458.53;7397936;19;1816;-72
2024/03/08 01:20:21;;;;;;;;;;;;;;;4.83;89.17;96463.66;7397916;19;1105;-70
2024/03/08 01:22:49;;;;;;;;;;;;;;;4.78;89.32;96468.91;7396031;19;1850;-70
2024/03/08 01:25:18;;;;;;;;;;;;;;;4.77;89.56;96468.06;7397649;19;1935;-67
2024/03/08 01:27:46;;;;;;;;;;;;;;;4.77;89.65;96468.06;7397598;19;939;-70
2024/03/08 01:30:18;;;;;;;;;;;;;;;4.60;89.93;96460.53;7397082;19;1987;-68
2024/03/08 01:32:47;;;;;;;;;;;;;;;4.68;90.17;96463.91;7396996;19;1029;-66
2024/03/08 01:35:15;;;;;;;;;;;;;;;4.75;90.16;96466.34;7397232;19;1899;-68
2024/03/08 01:37:44;;;;;;;;;;;;;;;4.77;90.44;96465.47;7397196;19;1909;-67
2024/03/08 01:40:12;;;;;;;;;;;;;;;4.63;90.43;96465.69;7397149;19;1055;-70
2024/03/08 01:42:42;;;;;;;;;;;;;;;4.76;90.55;96475.88;7396016;19;1842;-69
2024/03/08 01:45:11;;;;;;;;;;;;;;;4.87;90.04;96473.94;7397435;19;1765;-68
2024/03/08 01:47:42;;;;;;;;;;;;;;;4.80;89.08;96474.94;7396964;19;1058;-72
2024/03/08 01:50:11;;;;;;;;;;;;;;;4.73;89.34;96479.34;7396443;19;1147;-69
2024/03/08 01:52:40;;;;;;;;;;;;;;;4.73;89.50;96479.34;7396686;19;1881;-69
2024/03/08 01:55:09;;;;;;;;;;;;;;;4.72;89.90;96479.41;7396267;19;1114;-65
2024/03/08 01:57:38;;;;;;;;;;;;;;;4.54;89.57;96484.81;7396700;19;963;-67
2024/03/08 02:00:10;;;;;;;;;;;;;;;4.60;89.79;96481.28;7396173;19;1143;-69
2024/03/08 02:02:40;;;;;;;;;;;;;;;4.64;89.74;96474.31;7395213;19;1838;-68
2024/03/08 02:05:11;;;;;;;;;;;;;;;4.65;89.33;96466.53;7396071;19;981;-67
2024/03/08 02:07:43;;;;;;;;;;;;;;;4.68;89.50;96470.81;7395828;19;1037;-67
2024/03/08 02:10:12;;;;;;;;;;;;;;;4.71;89.73;96475.06;7394728;19;1219;-70
2024/03/08 02:12:41;;;;;;;;;;;;;;;4.62;89.51;96469.16;7395579;19;1057;-67
2024/03/08 02:15:10;;;;;;;;;;;;;;;4.60;89.70;96472.66;7395994;19;1033;-69
2024/03/08 02:17:38;;;;;;;;;;;;;;;4.61;89.78;96475.19;7395523;19;1116;-65
2024/03/08 02:20:09;;;;;;;;;;;;;;;4.55;89.75;96473.56;7396203;19;1652;-68
2024/03/08 02:22:40;;;;;;;;;;;;;;;4.54;89.89;96478.78;7394564;19;1849;-68
2024/03/08 02:25:10;;;;;;;;;;;;;;;4.58;89.61;96485.66;7394905;19;933;-66
2024/03/08 02:27:38;;;;;;;;;;;;;;;4.61;88.91;96482.16;7395277;19;1048;-70
2024/03/08 02:30:08;;;;;;;;;;;;;;;4.57;88.83;96483.91;7395408;19;1031;-69
2024/03/08 02:32:36;;;;;;;;;;;;;;;4.60;89.28;96483.03;7395558;19;1018;-65
2024/03/08 02:35:06;;;;;;;;;;;;;;;4.60;88.93;96486.47;7395360;19;1805;-67
2024/03/08 02:37:34;;;;;;;;;;;;;;;4.62;88.89;96478.66;7395483;19;984;-69
2024/03/08 02:40:05;;;;;;;;;;;;;;;4.64;88.49;96474.31;7394955;19;971;-68
2024/03/08 02:42:34;;;;;;;;;;;;;;;4.54;88.53;96473.59;7394014;19;1838;-65
2024/03/08 02:45:02;;;;;;;;;;;;;;;4.55;89.32;96472.72;7395251;19;1810;-70
2024/03/08 02:47:31;;;;;;;;;;;;;;;4.62;88.40;96473.47;7395160;19;1077;-68
2024/03/08 02:49:59;;;;;;;;;;;;;;;4.51;88.39;96474.50;7394577;19;1117;-69
2024/03/08 02:52:27;;;;;;;;;;;;;;;4.56;88.97;96471.84;7394556;19;1064;-70
2024/03/08 02:54:56;;;;;;;;;;;;;;;4.53;88.89;96471.88;7394419;19;1124;-70
2024/03/08 02:57:27;;;;;;;;;;;;;;;4.43;88.47;96466.84;7395126;19;1654;-63
2024/03/08 02:59:56;;;;;;;;;;;;;;;4.38;88.34;96468.66;7394273;19;1085;-66
2024/03/08 03:02:25;;;;;;;;;;;;;;;4.40;88.88;96471.22;7393995;19;1915;-70
2024/03/08 03:04:53;;;;;;;;;;;;;;;4.49;89.02;96462.47;7394605;19;971;-70
2024/03/08 03:07:22;;;;;;;;;;;;;;;4.40;88.92;96472.06;7394152;19;1124;-66
2024/03/08 03:09:51;;;;;;;;;;;;;;;4.47;88.52;96470.25;7393330;19;1241;-69
2024/03/08 03:12:19;;;;;;;;;;;;;;;4.30;88.21;96467.88;7393997;19;1006;-65
2024/03/08 03:14:50;;;;;;;;;;;;;;;4.25;88.52;96462.78;7394470;19;984;-64
2024/03/08 03:17:19;;;;;;;;;;;;;;;4.23;89.23;96466.25;7394403;19;1026;-66
2024/03/08 03:19:48;;;;;;;;;;;;;;;4.07;89.44;96463.91;7394247;19;1051;-69
2024/03/08 03:22:16;;;;;;;;;;;;;;;4.14;89.57;96465.53;7393690;19;1845;-69
2024/03/08 03:24:46;;;;;;;;;;;;;;;4.13;89.55;96463.78;7394066;19;1032;-67
2024/03/08 03:27:15;;;;;;;;;;;;;;;4.27;89.75;96471.38;7394119;19;1028;-69
2024/03/08 03:29:45;;;;;;;;;;;;;;;4.39;88.64;96472.94;7393496;19;1010;-66
2024/03/08 03:32:16;;;;;;;;;;;;;;;4.40;87.94;96468.63;7393906;19;1051;-70
2024/03/08 03:34:45;;;;;;;;;;;;;;;4.40;87.98;96476.41;7393418;19;1045;-69
2024/03/08 03:37:14;;;;;;;;;;;;;;;4.35;87.92;96470.41;7400158;19;982;-65
2024/03/08 03:39:48;;;;;;;;;;;;;;;4.35;88.04;96470.41;7401074;19;1837;-64
2024/03/08 03:42:17;;;;;;;;;;;;;;;4.33;87.82;96475.63;7400296;19;1830;-67
2024/03/08 03:44:47;;;;;;;;;;;;;;;4.25;88.12;96473.13;7401107;19;1025;-66
2024/03/08 03:47:18;;;;;;;;;;;;;;;4.27;88.62;96470.50;7400837;19;1816;-67
2024/03/08 03:49:47;;;;;;;;;;;;;;;4.25;88.54;96467.94;7400906;19;953;-72
2024/03/08 03:52:15;;;;;;;;;;;;;;;4.33;88.83;96467.84;7400327;19;1060;-69
2024/03/08 03:54:43;;;;;;;;;;;;;;;4.29;88.48;96464.47;7400560;19;1815;-66
2024/03/08 03:57:12;;;;;;;;;;;;;;;4.26;88.44;96461.03;7400540;19;1906;-67
2024/03/08 03:59:40;;;;;;;;;;;;;;;4.24;88.84;96468.00;7400249;19;1115;-68
2024/03/08 04:02:09;;;;;;;;;;;;;;;4.31;88.68;96472.22;7399913;19;1833;-68
2024/03/08 04:04:40;;;;;;;;;;;;;;;4.24;88.80;96466.25;7400053;19;1072;-67
2024/03/08 04:07:09;;;;;;;;;;;;;;;4.29;88.74;96477.41;7400493;19;1032;-69
2024/03/08 04:09:38;;;;;;;;;;;;;;;4.21;88.92;96473.22;7399174;19;1136;-66
2024/03/08 04:12:09;;;;;;;;;;;;;;;4.33;88.56;96479.97;7399740;19;1072;-64
2024/03/08 04:14:38;;;;;;;;;;;;;;;4.48;88.70;96477.13;7400203;19;1050;-69
2024/03/08 04:17:08;;;;;;;;;;;;;;;4.64;87.63;96487.28;7399734;19;1087;-67
2024/03/08 04:19:39;;;;;;;;;;;;;;;4.55;86.89;96488.28;7399923;19;1111;-65
2024/03/08 04:22:08;;;;;;;;;;;;;;;4.52;86.98;96483.13;7399525;19;1123;-72
2024/03/08 04:24:37;;;;;;;;;;;;;;;4.68;86.84;96484.63;7396807;19;1858;-68
2024/03/08 04:27:05;;;;;;;;;;;;;;;4.80;86.85;96487.91;7400064;19;1652;-64
2024/03/08 04:29:34;;;;;;;;;;;;;;;4.90;86.32;96480.81;7399202;19;1105;-71
2024/03/08 04:32:04;;;;;;;;;;;;;;;4.75;85.64;96482.78;7399120;19;1394;-66
2024/03/08 04:34:32;;;;;;;;;;;;;;;4.82;85.62;96486.16;7399441;19;1024;-67
2024/03/08 04:37:04;;;;;;;;;;;;;;;4.78;85.57;96479.28;7399218;19;1919;-69
2024/03/08 04:39:33;;;;;;;;;;;;;;;4.72;85.74;96476.81;7399368;19;971;-66
2024/03/08 04:42:04;;;;;;;;;;;;;;;4.67;85.96;96477.69;7399120;19;1957;-70
2024/03/08 04:44:33;;;;;;;;;;;;;;;4.63;86.08;96483.81;7396355;19;1842;-69
2024/03/08 04:47:01;;;;;;;;;;;;;;;4.64;86.19;96476.91;7398642;19;956;-67
2024/03/08 04:49:30;;;;;;;;;;;;;;;4.72;86.35;96479.41;7398514;19;1061;-69
2024/03/08 04:51:59;;;;;;;;;;;;;;;4.79;85.88;96486.19;7398739;19;1809;-70
2024/03/08 04:54:30;;;;;;;;;;;;;;;4.83;85.46;96485.25;7399003;19;1742;-69
2024/03/08 04:56:59;;;;;;;;;;;;;;;4.76;85.78;96481.88;7398233;19;1068;-69
2024/03/08 04:59:28;;;;;;;;;;;;;;;4.86;85.58;96492.97;7398656;19;976;-66
2024/03/08 05:01:56;;;;;;;;;;;;;;;4.95;85.52;96491.97;7398373;19;1803;-68
2024/03/08 05:04:25;;;;;;;;;;;;;;;4.88;85.46;96496.38;7396036;19;1843;-68
2024/03/08 05:06:53;;;;;;;;;;;;;;;5.02;85.55;96503.94;7398163;19;1900;-66
2024/03/08 05:09:23;;;;;;;;;;;;;;;4.97;85.09;96500.56;7397646;19;1908;-66
2024/03/08 05:11:54;;;;;;;;;;;;;;;5.10;85.02;96508.16;7398261;19;1253;-67
2024/03/08 05:14:24;;;;;;;;;;;;;;;5.24;85.13;96511.34;7397551;19;1025;-70
2024/03/08 05:16:53;;;;;;;;;;;;;;;5.34;84.47;96513.81;7397557;19;1092;-67
2024/03/08 05:19:23;;;;;;;;;;;;;;;5.43;84.33;96513.66;7397694;19;1915;-67
2024/03/08 05:21:52;;;;;;;;;;;;;;;5.49;83.45;96507.47;7397312;19;967;-67
2024/03/08 05:24:21;;;;;;;;;;;;;;;5.49;82.89;96515.28;7395625;19;1838;-70
2024/03/08 05:26:50;;;;;;;;;;;;;;;5.57;82.67;96513.41;7397258;19;1045;-65
2024/03/08 05:29:22;;;;;;;;;;;;;;;5.61;82.43;96512.47;7397229;19;1120;-69
2024/03/08 05:31:52;;;;;;;;;;;;;;;5.66;82.86;96521.00;7397060;19;1049;-66
2024/03/08 05:34:21;;;;;;;;;;;;;;;5.68;83.25;96518.38;7397459;19;963;-69
2024/03/08 05:36:50;;;;;;;;;;;;;;;5.76;83.30;96524.28;7397183;19;978;-66
2024/03/08 05:39:19;;;;;;;;;;;;;;;5.83;83.67;96525.03;7397364;19;965;-69
2024/03/08 05:41:48;;;;;;;;;;;;;;;5.82;83.29;96524.16;7396985;19;1076;-69
2024/03/08 05:44:17;;;;;;;;;;;;;;;5.87;82.99;96529.25;7395404;19;1841;-69
2024/03/08 05:46:49;;;;;;;;;;;;;;;5.88;82.54;96528.41;7396720;19;1053;-67
2024/03/08 05:49:18;;;;;;;;;;;;;;;5.89;82.75;96531.81;7396597;19;1104;-67
2024/03/08 05:51:47;;;;;;;;;;;;;;;5.93;82.73;96525.72;7396428;19;1101;-70
2024/03/08 05:54:16;;;;;;;;;;;;;;;5.94;82.56;96535.22;7396783;19;1051;-65
2024/03/08 05:56:44;;;;;;;;;;;;;;;5.98;82.48;96536.84;7396254;19;1123;-66
2024/03/08 05:59:13;;;;;;;;;;;;;;;6.04;82.43;96535.91;7394653;19;1112;-69
2024/03/08 06:01:41;;;;;;;;;;;;;;;6.03;82.69;96541.97;7397006;19;953;-69
2024/03/08 06:04:14;;;;;;;;;;;;;;;6.06;82.50;96544.53;7394915;19;1849;-66
2024/03/08 06:06:42;;;;;;;;;;;;;;;6.08;82.32;96547.94;7396468;19;1026;-66
2024/03/08 06:09:16;;;;;;;;;;;;;;;6.10;82.03;96556.56;7395974;19;1888;-69
2024/03/08 06:11:45;;;;;;;;;;;;;;;6.09;82.28;96546.19;7395830;19;1116;-65
2024/03/08 06:14:16;;;;;;;;;;;;;;;6.10;82.07;96555.69;7396155;19;992;-65
2024/03/08 06:16:44;;;;;;;;;;;;;;;6.04;81.90;96549.75;7395602;19;1123;-69
2024/03/08 06:19:16;;;;;;;;;;;;;;;6.05;82.44;96548.84;7395847;19;1796;-69
2024/03/08 06:21:45;;;;;;;;;;;;;;;6.11;82.41;96549.63;7395893;19;1002;-69
2024/03/08 06:24:14;;;;;;;;;;;;;;;6.19;81.23;96547.72;7394345;19;1857;-66
2024/03/08 06:26:43;;;;;;;;;;;;;;;6.25;81.28;96554.53;7395352;19;1021;-68
2024/03/08 06:29:12;;;;;;;;;;;;;;;6.32;80.44;96551.78;7396103;19;1335;-69
2024/03/08 06:31:41;;;;;;;;;;;;;;;6.36;80.64;96559.53;7395128;19;1206;-66
2024/03/08 06:34:10;;;;;;;;;;;;;;;6.40;80.90;96553.38;7395465;19;1033;-70
2024/03/08 06:36:41;;;;;;;;;;;;;;;6.40;81.36;96558.56;7395375;19;1029;-68
2024/03/08 06:39:10;;;;;;;;;;;;;;;6.41;81.69;96568.91;7394907;19;1687;-66
2024/03/08 06:41:38;;;;;;;;;;;;;;;6.38;81.89;96568.97;7395277;19;961;-69
2024/03/08 06:44:08;;;;;;;;;;;;;;;6.30;82.33;96558.75;7394637;19;1841;-66
2024/03/08 06:46:36;;;;;;;;;;;;;;;6.27;83.11;96568.34;7394676;19;1084;-67
2024/03/08 06:49:07;;;;;;;;;;;;;;;6.35;82.58;96573.41;7394581;19;1025;-66
2024/03/08 06:51:35;;;;;;;;;;;;;;;6.41;82.25;96571.53;7394565;19;1278;-68
2024/03/08 06:54:08;;;;;;;;;;;;;;;6.31;82.53;96575.19;7394714;19;1821;-65
2024/03/08 06:56:37;;;;;;;;;;;;;;;6.24;82.98;96571.88;7394383;19;1084;-68
2024/03/08 06:59:06;;;;;;;;;;;;;;;6.30;83.14;96576.94;7394633;19;996;-70
2024/03/08 07:01:34;;;;;;;;;;;;;;;6.36;83.19;96583.78;7394522;19;1894;-66
2024/03/08 07:04:05;;;;;;;;;;;;;;;6.42;83.22;96585.38;7393373;19;1853;-69
2024/03/08 07:06:34;;;;;;;;;;;;;;;6.43;82.92;96581.88;7394704;19;977;-69
2024/03/08 07:09:02;;;;;;;;;;;;;;;6.45;83.01;96587.91;7394471;19;979;-70
2024/03/08 07:11:34;;;;;;;;;;;;;;;6.49;82.46;96586.97;7396211;19;1307;-69
2024/03/08 07:14:05;;;;;;;;;;;;;;;6.49;82.98;96591.28;7402028;19;1030;-68
2024/03/08 07:16:34;;;;;;;;;;;;;;;6.52;82.71;96596.44;7401561;19;1026;-70
2024/03/08 07:19:04;;;;;;;;;;;;;;;6.56;82.65;96598.94;7401343;19;1053;-68
2024/03/08 07:21:33;;;;;;;;;;;;;;;6.61;82.68;96597.97;7401301;19;915;-68
2024/03/08 07:24:24;;;;;;;;;;;;;;;6.64;82.43;96603.97;7400709;19;1850;-66
2024/03/08 07:26:55;;;;;;;;;;;;;;;6.55;82.25;96605.03;7401584;19;1077;-68
2024/03/08 07:29:24;;;;;;;;;;;;;;;6.63;81.98;96602.28;7401062;19;1151;-68
2024/03/08 07:31:56;;;;;;;;;;;;;;;6.64;82.00;96605.72;7401507;19;943;-70
2024/03/08 07:34:24;;;;;;;;;;;;;;;6.60;82.48;96601.47;7398526;19;969;-72
2024/03/08 07:36:53;;;;;;;;;;;;;;;6.66;82.06;96603.94;7400880;19;1096;-65
2024/03/08 07:39:23;;;;;;;;;;;;;;;6.65;81.77;96607.44;7401183;19;951;-69
2024/03/08 07:41:52;;;;;;;;;;;;;;;6.72;81.70;96606.41;7400758;19;1100;-66
2024/03/08 07:44:23;;;;;;;;;;;;;;;6.80;81.32;96607.09;7399272;19;1834;-70
2024/03/08 07:46:52;;;;;;;;;;;;;;;6.88;80.46;96606.94;7400589;19;1164;-69
2024/03/08 07:49:20;;;;;;;;;;;;;;;6.97;79.32;96610.22;7400915;19;1007;-65
2024/03/08 07:51:49;;;;;;;;;;;;;;;7.03;79.79;96616.13;7400448;19;1131;-64
2024/03/08 07:54:17;;;;;;;;;;;;;;;7.06;78.65;96616.06;7400256;19;1053;-69
2024/03/08 07:56:46;;;;;;;;;;;;;;;7.12;78.06;96617.69;7401191;19;1834;-67
2024/03/08 07:59:15;;;;;;;;;;;;;;;7.06;74.87;96623.88;7400151;19;1017;-72
2024/03/08 08:01:47;;;;;;;;;;;;;;;6.87;73.86;96619.97;7400566;19;968;-65
2024/03/08 08:04:17;;;;;;;;;;;;;;;6.94;75.01;96617.22;7399047;19;1846;-70
2024/03/08 08:06:46;;;;;;;;;;;;;;;6.95;76.02;96616.31;7400471;19;1069;-68
2024/03/08 08:09:27;;;;;;;;;;;;;;;6.90;78.54;96619.91;7400218;19;1931;-72
2024/03/08 08:11:56;;;;;;;;;;;;;;;6.99;79.02;96624.03;7399726;19;1065;-70
2024/03/08 08:14:25;;;;;;;;;;;;;;;7.05;79.32;96624.75;7400028;19;1396;-67
2024/03/08 08:16:57;;;;;;;;;;;;;;;7.05;79.58;96624.75;7399627;19;1044;-67
2024/03/08 08:19:26;;;;;;;;;;;;;;;7.13;79.22;96626.34;7399417;19;1045;-69
2024/03/08 08:21:55;;;;;;;;;;;;;;;7.17;79.00;96623.63;7398746;19;1059;-67
2024/03/08 08:24:24;;;;;;;;;;;;;;;7.19;78.74;96628.78;7398310;19;1842;-71
2024/03/08 08:26:52;;;;;;;;;;;;;;;7.18;78.21;96629.69;7399307;19;1009;-66
2024/03/08 08:29:22;;;;;;;;;;;;;;;7.22;78.18;96635.69;7399492;19;1952;-69
2024/03/08 08:31:51;;;;;;;;;;;;;;;7.23;78.10;96629.56;7399091;19;995;-72
2024/03/08 08:34:23;;;;;;;;;;;;;;;7.22;78.20;96633.09;7399290;19;959;-66
2024/03/08 08:36:52;;;;;;;;;;;;;;;7.18;78.27;96633.16;7398926;19;1174;-67
2024/03/08 08:39:22;;;;;;;;;;;;;;;7.13;78.11;96631.56;7399320;19;961;-66
2024/03/08 08:41:50;;;;;;;;;;;;;;;7.03;78.59;96630.88;7399256;19;1075;-70
2024/03/08 08:44:19;;;;;;;;;;;;;;;7.06;79.70;96631.69;7398416;19;1840;-72
2024/03/08 08:46:47;;;;;;;;;;;;;;;6.94;78.93;96629.34;7399063;19;1014;-69
2024/03/08 08:49:20;;;;;;;;;;;;;;;6.96;79.76;96640.59;7398554;19;1116;-67
2024/03/08 08:51:55;;;;;;;;;;;;;;;7.01;80.95;96638.72;7398919;19;968;-71
2024/03/08 08:54:24;;;;;;;;;;;;;;;7.23;81.13;96637.38;7398391;19;1119;-69
2024/03/08 08:56:53;;;;;;;;;;;;;;;7.35;80.92;96636.25;7398738;19;1084;-68
2024/03/08 08:59:24;;;;;;;;;;;;;;;7.52;79.67;96641.91;7399009;19;1672;-67
2024/03/08 09:01:53;;;;;;;;;;;;;;;7.53;78.62;96643.59;7398652;19;1039;-65
2024/03/08 09:04:22;;;;;;;;;;;;;;;7.54;78.48;96632.31;7397868;19;1856;-70
2024/03/08 09:06:51;;;;;;;;;;;;;;;7.47;78.26;96635.97;7398468;19;1019;-67
2024/03/08 09:09:22;;;;;;;;;;;;;;;7.42;76.98;96646.47;7398135;19;1066;-67
2024/03/08 09:11:51;;;;;;;;;;;;;;;7.26;77.71;96640.78;7397716;19;1044;-69
2024/03/08 09:14:20;;;;;;;;;;;;;;;7.14;78.20;96641.91;7398167;19;1022;-70
2024/03/08 09:16:48;;;;;;;;;;;;;;;7.12;78.30;96640.22;7397655;19;994;-68
2024/03/08 09:19:17;;;;;;;;;;;;;;;7.11;78.65;96641.13;7397928;19;1827;-65
2024/03/08 09:21:45;;;;;;;;;;;;;;;7.20;78.55;96646.13;7397453;19;1091;-66
2024/03/08 09:24:15;;;;;;;;;;;;;;;7.04;76.70;96643.84;7397513;19;1838;-69
2024/03/08 09:26:47;;;;;;;;;;;;;;;7.00;77.71;96636.16;7397427;19;1100;-65
2024/03/08 09:29:16;;;;;;;;;;;;;;;6.87;77.94;96636.44;7397176;19;1034;-69
2024/03/08 09:31:46;;;;;;;;;;;;;;;6.89;78.38;96641.59;7397256;19;1108;-67
2024/03/08 09:34:14;;;;;;;;;;;;;;;7.00;78.48;96636.16;7394911;19;1017;-67
2024/03/08 09:36:42;;;;;;;;;;;;;;;7.04;78.54;96643.84;7397334;19;977;-69
2024/03/08 09:39:16;;;;;;;;;;;;;;;7.07;78.02;96646.38;7397237;19;1913;-67
2024/03/08 09:41:47;;;;;;;;;;;;;;;7.19;77.42;96644.41;7397335;19;1067;-69
2024/03/08 09:44:16;;;;;;;;;;;;;;;7.33;77.52;96647.56;7396952;19;1854;-70
2024/03/08 09:46:46;;;;;;;;;;;;;;;7.33;76.68;96644.09;7397211;19;1044;-69
2024/03/08 09:49:14;;;;;;;;;;;;;;;7.33;76.60;96646.69;7396658;19;1107;-69
2024/03/08 09:51:43;;;;;;;;;;;;;;;7.39;76.10;96650.88;7396999;19;1055;-71
2024/03/08 09:54:12;;;;;;;;;;;;;;;7.40;76.35;96657.78;7396315;19;1061;-67
2024/03/08 09:56:41;;;;;;;;;;;;;;;7.29;76.96;96652.88;7396735;19;1036;-65
2024/03/08 10:01:59;;;;;;;;;;;;;;;7.25;79.28;96654.66;7393639;19;1056;-66
2024/03/08 10:04:30;;;;;;;;;;;;;;;7.29;77.85;96663.28;7395587;19;1842;-69
2024/03/08 10:06:59;;;;;;;;;;;;;;;7.17;78.10;96646.19;7395986;19;1943;-69
2024/03/08 10:09:27;;;;;;;;;;;;;;;7.25;77.79;96651.22;7396118;19;1026;-70
2024/03/08 10:11:57;;;;;;;;;;;;;;;7.32;78.54;96650.19;7395774;19;1037;-69
2024/03/08 10:14:29;;;;;;;;;;;;;;;7.38;76.95;96654.41;7395666;19;1139;-69
2024/03/08 10:16:59;;;;;;;;;;;;;;;7.39;76.14;96656.97;7395643;19;1128;-71
2024/03/08 10:19:29;;;;;;;;;;;;;;;7.40;77.63;96648.25;7395554;19;1069;-69
2024/03/08 10:21:58;;;;;;;;;;;;;;;7.20;79.43;96646.13;7396028;19;1009;-70
2024/03/08 10:24:27;;;;;;;;;;;;;;;7.25;79.33;96640.81;7395114;19;1852;-66
2024/03/08 10:26:56;;;;;;;;;;;;;;;7.40;78.19;96650.84;7395816;19;961;-67
2024/03/08 10:29:28;;;;;;;;;;;;;;;7.60;78.16;96652.13;7395219;19;1132;-70
2024/03/08 10:31:57;;;;;;;;;;;;;;;7.64;76.19;96650.28;7395163;19;1397;-68
2024/03/08 10:34:26;;;;;;;;;;;;;;;7.75;76.74;96642.22;7395408;19;1898;-71
2024/03/08 10:36:55;;;;;;;;;;;;;;;7.81;75.32;96650.75;7395381;19;1818;-67
2024/03/08 10:39:25;;;;;;;;;;;;;;;7.76;73.30;96638.72;7394897;19;1025;-64
2024/03/08 10:41:56;;;;;;;;;;;;;;;7.66;71.21;96638.97;7395249;19;1914;-68
2024/03/08 10:44:35;;;;;;;;;;;;;;;7.80;70.06;96653.41;7394525;19;1864;-71
2024/03/08 10:47:09;;;;;;;;;;;;;;;7.88;68.97;96648.84;7394742;19;1305;-66
2024/03/08 10:49:40;;;;;;;;;;;;;;;7.97;70.29;96645.13;7394555;19;1041;-69
2024/03/08 10:52:10;;;;;;;;;;;;;;;7.91;69.64;96645.28;7394621;19;1116;-69
2024/03/08 10:54:40;;;;;;;;;;;;;;;7.88;70.87;96641.03;7394373;19;1135;-67
2024/03/08 10:57:10;;;;;;;;;;;;;;;7.96;69.16;96646.91;7394435;19;1115;-70
2024/03/08 10:59:43;;;;;;;;;;;;;;;7.86;69.22;96642.81;7394337;19;1213;-71
2024/03/08 11:02:13;;;;;;;;;;;;;;;8.02;69.32;96638.06;7394776;19;969;-71
2024/03/08 11:04:41;;;;;;;;;;;;;;;7.91;68.81;96634.88;7394727;19;1854;-66
2024/03/08 11:07:16;;;;;;;;;;;;;;;7.96;69.75;96636.47;7394524;19;1907;-70
2024/03/08 11:09:45;;;;;;;;;;;;;;;8.17;69.44;96628.13;7393437;19;1201;-65
2024/03/08 11:12:34;;;;;;;;;;;;;;;8.28;69.27;96633.88;7394050;19;1029;-69
2024/03/08 11:15:13;;;;;;;;;;;;;;;8.21;67.49;96630.59;7393793;19;1574;-66
2024/03/08 11:17:48;;;;;;;;;;;;;;;8.03;69.57;96633.69;7393866;19;1029;-69
2024/03/08 11:20:18;;;;;;;;;;;;;;;7.96;68.95;96630.41;7393769;19;1049;-70
2024/03/08 11:22:51;;;;;;;;;;;;;;;8.13;68.20;96634.31;7393770;19;1021;-71
2024/03/08 11:25:36;;;;;;;;;;;;;;;8.16;66.76;96632.47;7393370;19;1813;-65
2024/03/08 11:28:17;;;;;;;;;;;;;;;7.95;65.80;96639.97;7393572;19;1097;-71
2024/03/08 11:30:49;;;;;;;;;;;;;;;8.06;64.73;96636.22;7393516;19;935;-66
2024/03/08 11:33:19;;;;;;;;;;;;;;;8.08;63.80;96637.91;7393952;19;970;-69
2024/03/08 11:35:47;;;;;;;;;;;;;;;8.11;63.57;96643.91;7393787;19;1047;-69
2024/03/08 11:38:19;;;;;;;;;;;;;;;8.11;62.46;96639.56;7393394;19;1375;-65
2024/03/08 11:40:49;;;;;;;;;;;;;;;8.07;62.38;96630.13;7393291;19;1036;-70
2024/03/08 11:43:19;;;;;;;;;;;;;;;7.93;60.84;96640.91;7393211;19;1029;-68
2024/03/08 11:45:50;;;;;;;;;;;;;;;7.90;60.84;96634.03;7392118;19;1870;-69
2024/03/08 11:48:19;;;;;;;;;;;;;;;7.79;61.10;96630.81;7393112;19;1041;-68
2024/03/08 11:50:49;;;;;;;;;;;;;;;7.82;61.28;96628.16;7393551;19;1036;-69
2024/03/08 11:53:17;;;;;;;;;;;;;;;7.84;60.21;96626.38;7392983;19;1045;-67
2024/03/08 11:55:48;;;;;;;;;;;;;;;7.89;61.03;96626.25;7393338;19;1059;-69
2024/03/08 11:58:16;;;;;;;;;;;;;;;7.95;61.39;96624.34;7399735;19;1043;-67
2024/03/08 12:00:46;;;;;;;;;;;;;;;8.12;61.93;96620.44;7400471;19;1826;-70
2024/03/08 12:03:18;;;;;;;;;;;;;;;8.11;61.22;96623.06;7400585;19;1025;-66
2024/03/08 12:05:47;;;;;;;;;;;;;;;8.10;60.86;96622.25;7398796;19;1856;-68
2024/03/08 12:08:15;;;;;;;;;;;;;;;8.07;61.58;96617.09;7399973;19;1021;-70
2024/03/08 12:10:44;;;;;;;;;;;;;;;8.11;60.76;96628.28;7397941;19;1285;-66
2024/03/08 12:13:14;;;;;;;;;;;;;;;8.26;61.93;96624.41;7399687;19;1037;-67
2024/03/08 12:15:44;;;;;;;;;;;;;;;8.34;61.29;96627.69;7399551;19;1112;-67
2024/03/08 12:18:12;;;;;;;;;;;;;;;8.39;60.52;96630.13;7399541;19;1192;-69
2024/03/08 12:20:49;;;;;;;;;;;;;;;8.26;62.68;96625.28;7399455;19;1041;-71
2024/03/08 12:23:18;;;;;;;;;;;;;;;8.25;64.18;96625.31;7399473;19;1049;-65
2024/03/08 12:25:47;;;;;;;;;;;;;;;8.14;63.21;96625.59;7398605;19;2241;-67
2024/03/08 12:28:14;;;;;;;;;;;;;;;8.15;63.78;96617.75;7399233;19;1142;-66
2024/03/08 12:30:49;;;;;;;;;;;;;;;7.95;64.38;96624.34;7396660;19;1845;-68
2024/03/08 12:33:17;;;;;;;;;;;;;;;7.71;63.70;96624.06;7399098;19;996;-67
2024/03/08 12:35:58;;;;;;;;;;;;;;;7.54;64.58;96621.91;7398966;19;1143;-68
2024/03/08 12:38:27;;;;;;;;;;;;;;;7.50;65.92;96628.09;7398878;19;1123;-66
2024/03/08 12:40:57;;;;;;;;;;;;;;;7.36;67.42;96618.00;7399195;19;1039;-71
2024/03/08 12:43:29;;;;;;;;;;;;;;;7.29;67.44;96630.28;7398724;19;1115;-66
2024/03/08 12:45:58;;;;;;;;;;;;;;;7.15;67.79;96629.75;7398126;19;1849;-68
2024/03/08 12:48:27;;;;;;;;;;;;;;;7.19;67.65;96633.97;7398653;19;1180;-67
2024/03/08 12:53:55;;;;;;;;;;;;;;;7.03;65.99;96636.09;7398753;19;770;-68
2024/03/08 12:56:32;;;;;;;;;;;;;;;7.02;65.29;96635.25;7398338;19;960;-64
2024/03/08 12:59:01;;;;;;;;;;;;;;;6.98;65.80;96630.97;7398401;19;1041;-69
2024/03/08 13:01:32;;;;;;;;;;;;;;;7.01;67.13;96632.69;7398133;19;1132;-64
2024/03/08 13:04:01;;;;;;;;;;;;;;;7.01;66.01;96623.13;7398505;19;1037;-66
2024/03/08 13:06:30;;;;;;;;;;;;;;;6.97;66.27;96623.22;7396574;19;1850;-69
2024/03/08 13:09:05;;;;;;;;;;;;;;;7.08;65.96;96621.25;7397792;19;1119;-71
2024/03/08 13:11:36;;;;;;;;;;;;;;;7.21;66.28;96624.41;7396066;19;1135;-70
2024/03/08 13:14:05;;;;;;;;;;;;;;;7.38;65.77;96623.16;7397840;19;1059;-70
2024/03/08 13:16:34;;;;;;;;;;;;;;;7.43;65.40;96622.16;7397656;19;1067;-70
2024/03/08 13:19:03;;;;;;;;;;;;;;;7.19;64.13;96629.66;7397529;19;991;-65
2024/03/08 13:21:32;;;;;;;;;;;;;;;7.17;64.14;96626.22;7397691;19;1834;-69
2024/03/08 13:24:03;;;;;;;;;;;;;;;7.16;65.00;96621.03;7397862;19;1215;-67
2024/03/08 13:26:33;;;;;;;;;;;;;;;7.15;63.23;96629.75;7396460;19;1837;-70
2024/03/08 13:29:02;;;;;;;;;;;;;;;7.12;62.64;96632.41;7397384;19;1116;-66